createdAt,value
2022-10-05T00:00:53.446Z,52.38
2022-10-05T00:01:56.600Z,52.62
2022-10-05T00:02:58.554Z,52.46
2022-10-05T00:04:23.968Z,52.38
2022-10-05T00:05:34.127Z,52.58
2022-10-05T00:06:35.975Z,52.75
2022-10-05T00:07:37.727Z,52.72
2022-10-05T00:08:39.732Z,52.96
2022-10-05T00:09:42.109Z,52.71
2022-10-05T00:10:46.452Z,52.83
2022-10-05T00:11:49.932Z,52.88
2022-10-05T00:12:51.758Z,52.87
2022-10-05T00:13:53.538Z,52.72
2022-10-05T00:15:00.563Z,52.87
2022-10-05T00:16:16.234Z,52.72
2022-10-05T00:17:30.164Z,52.77
2022-10-05T00:18:32.840Z,52.59
2022-10-05T00:19:39.628Z,52.93
2022-10-05T00:20:43.775Z,53.11
2022-10-05T00:21:45.559Z,53.43
2022-10-05T00:22:48.082Z,53.42
2022-10-05T00:23:50.687Z,53.32
2022-10-05T00:24:59.942Z,53.19
2022-10-05T00:26:24.967Z,53.65
2022-10-05T00:27:36.482Z,53.84
2022-10-05T00:28:38.284Z,53.66
2022-10-05T00:29:40.156Z,53.37
2022-10-05T00:30:41.957Z,53.67
2022-10-05T00:31:43.680Z,53.68
2022-10-05T00:32:46.839Z,53.70
2022-10-05T00:33:49.487Z,54.01
2022-10-05T00:34:51.669Z,53.40
2022-10-05T00:35:54.201Z,53.69
2022-10-05T00:36:55.969Z,53.96
2022-10-05T00:37:57.696Z,53.71
2022-10-05T00:39:01.881Z,53.51
2022-10-05T00:40:43.753Z,53.64
2022-10-05T00:42:09.778Z,53.75
2022-10-05T00:43:23.354Z,53.43
2022-10-05T00:44:39.207Z,53.34
2022-10-05T00:45:59.997Z,53.68
2022-10-05T00:47:16.946Z,53.59
2022-10-05T00:48:43.049Z,53.55
2022-10-05T00:50:13.690Z,53.69
2022-10-05T00:51:29.262Z,53.77
2022-10-05T00:53:01.930Z,53.62
2022-10-05T00:54:43.031Z,53.51
2022-10-05T00:56:35.859Z,53.74
2022-10-05T00:57:44.152Z,53.66
2022-10-05T00:58:55.967Z,54.01
2022-10-05T01:00:15.779Z,53.57
2022-10-05T01:01:45.109Z,54.02
2022-10-05T01:03:19.035Z,53.46
2022-10-05T01:04:53.955Z,53.30
2022-10-05T01:06:16.318Z,53.63
2022-10-05T01:08:24.873Z,53.88
2022-10-05T01:10:10.707Z,53.54
2022-10-05T01:11:35.861Z,53.35
2022-10-05T01:13:00.131Z,53.60
2022-10-05T01:14:10.316Z,53.93
2022-10-05T01:15:27.458Z,53.68
2022-10-05T01:16:48.837Z,53.48
2022-10-05T01:18:21.084Z,53.69
2022-10-05T01:19:55.360Z,53.96
2022-10-05T01:21:21.400Z,53.31
2022-10-05T01:22:49.915Z,53.62
2022-10-05T01:24:10.113Z,53.98
2022-10-05T01:25:48.305Z,53.96
2022-10-05T01:27:15.785Z,54.15
2022-10-05T01:28:27.993Z,54.12
2022-10-05T01:29:52.170Z,53.96
2022-10-05T01:31:34.547Z,54.00
2022-10-05T01:33:00.004Z,53.98
2022-10-05T01:34:27.304Z,54.52
2022-10-05T01:35:47.040Z,54.57
2022-10-05T01:37:25.712Z,54.48
2022-10-05T01:39:01.134Z,54.79
2022-10-05T01:40:16.154Z,54.41
2022-10-05T01:42:01.583Z,54.38
2022-10-05T01:43:22.651Z,54.76
2022-10-05T01:44:51.435Z,54.21
2022-10-05T01:46:22.558Z,54.29
2022-10-05T01:47:47.837Z,54.62
2022-10-05T01:49:11.919Z,54.68
2022-10-05T01:50:49.833Z,53.99
2022-10-05T01:52:16.972Z,54.41
2022-10-05T01:54:18.084Z,54.57
2022-10-05T01:55:57.315Z,54.78
2022-10-05T01:57:29.969Z,54.13
2022-10-05T01:58:56.018Z,54.74
2022-10-05T02:00:11.237Z,55.01
2022-10-05T02:02:15.365Z,55.04
2022-10-05T02:03:30.595Z,54.40
2022-10-05T02:05:01.574Z,54.66
2022-10-05T02:06:17.437Z,54.72
2022-10-05T02:07:49.481Z,54.44
2022-10-05T02:09:05.641Z,54.48
2022-10-05T02:10:31.148Z,54.76
2022-10-05T02:11:34.129Z,54.91
2022-10-05T02:12:38.842Z,54.61
2022-10-05T02:14:20.267Z,55.24
2022-10-05T02:15:32.669Z,55.43
2022-10-05T02:16:41.090Z,55.31
2022-10-05T02:17:50.277Z,54.93
2022-10-05T02:19:18.400Z,54.94
2022-10-05T02:20:29.704Z,54.94
2022-10-05T02:21:36.350Z,55.27
2022-10-05T02:22:46.532Z,55.12
2022-10-05T02:23:54.494Z,54.92
2022-10-05T02:25:06.425Z,55.70
2022-10-05T02:26:12.640Z,55.67
2022-10-05T02:27:24.358Z,54.70
2022-10-05T02:28:47.928Z,54.98
2022-10-05T02:29:56.105Z,55.06
2022-10-05T02:31:14.059Z,54.67
2022-10-05T02:32:32.543Z,54.63
2022-10-05T02:33:35.334Z,55.23
2022-10-05T02:34:41.171Z,55.33
2022-10-05T02:35:42.907Z,55.15
2022-10-05T02:36:47.089Z,55.49
2022-10-05T02:38:36.516Z,55.08
2022-10-05T02:40:18.686Z,54.98
2022-10-05T02:42:03.285Z,54.56
2022-10-05T02:43:23.828Z,54.46
2022-10-05T02:44:44.280Z,54.94
2022-10-05T02:46:18.931Z,54.82
2022-10-05T02:47:40.144Z,54.31
2022-10-05T02:49:02.629Z,54.47
2022-10-05T02:50:42.248Z,54.36
2022-10-05T02:52:21.696Z,54.48
2022-10-05T02:53:32.783Z,55.00
2022-10-05T02:55:13.737Z,54.26
2022-10-05T02:56:27.285Z,54.11
2022-10-05T02:57:39.128Z,54.59
2022-10-05T02:59:03.743Z,54.52
2022-10-05T03:00:22.476Z,53.91
2022-10-05T03:01:50.409Z,54.20
2022-10-05T03:03:06.447Z,54.98
2022-10-05T03:04:36.900Z,55.00
2022-10-05T03:05:51.364Z,54.91
2022-10-05T03:07:20.555Z,54.53
2022-10-05T03:08:52.885Z,54.76
2022-10-05T03:10:14.736Z,54.89
2022-10-05T03:11:45.616Z,54.23
2022-10-05T03:13:05.362Z,55.17
2022-10-05T03:14:46.622Z,54.33
2022-10-05T03:16:00.314Z,54.49
2022-10-05T03:17:25.378Z,54.68
2022-10-05T03:18:47.496Z,54.65
2022-10-05T03:20:07.032Z,55.39
2022-10-05T03:21:17.612Z,55.40
2022-10-05T03:23:03.461Z,54.85
2022-10-05T03:24:35.431Z,54.53
2022-10-05T03:26:07.136Z,55.15
2022-10-05T03:27:18.349Z,54.40
2022-10-05T03:28:28.621Z,54.83
2022-10-05T03:29:50.503Z,54.46
2022-10-05T03:31:44.873Z,54.51
2022-10-05T03:33:01.300Z,55.42
2022-10-05T03:34:35.617Z,55.52
2022-10-05T03:35:49.124Z,54.93
2022-10-05T03:37:20.692Z,54.97
2022-10-05T03:38:30.341Z,55.56
2022-10-05T03:39:46.830Z,54.60
2022-10-05T03:41:16.185Z,55.12
2022-10-05T03:42:17.814Z,55.57
2022-10-05T03:43:43.652Z,54.83
2022-10-05T03:45:30.653Z,55.13
2022-10-05T03:47:35.861Z,54.80
2022-10-05T03:48:51.839Z,54.87
2022-10-05T03:50:13.163Z,55.66
2022-10-05T03:51:29.731Z,55.36
2022-10-05T03:53:06.733Z,55.19
2022-10-05T03:54:22.345Z,55.29
2022-10-05T03:55:36.019Z,54.77
2022-10-05T03:56:50.540Z,54.77
2022-10-05T03:57:58.471Z,55.24
2022-10-05T03:59:18.380Z,54.94
2022-10-05T04:00:23.473Z,55.04
2022-10-05T04:01:43.054Z,55.43
2022-10-05T04:03:15.591Z,54.72
2022-10-05T04:04:32.802Z,54.87
2022-10-05T04:05:48.473Z,54.69
2022-10-05T04:06:54.438Z,54.71
2022-10-05T04:08:07.021Z,54.32
2022-10-05T04:09:19.115Z,54.51
2022-10-05T04:10:43.152Z,54.95
2022-10-05T04:12:23.389Z,54.65
2022-10-05T04:14:12.096Z,54.81
2022-10-05T04:15:37.564Z,54.21
2022-10-05T04:16:47.104Z,54.78
2022-10-05T04:18:19.957Z,54.78
2022-10-05T04:19:40.285Z,55.04
2022-10-05T04:20:52.057Z,54.43
2022-10-05T04:22:20.883Z,54.18
2022-10-05T04:23:44.499Z,55.10
2022-10-05T04:24:56.203Z,54.58
2022-10-05T04:26:09.411Z,54.92
2022-10-05T04:27:30.847Z,54.65
2022-10-05T04:29:05.917Z,54.37
2022-10-05T04:30:24.393Z,54.59
2022-10-05T04:32:02.110Z,54.78
2022-10-05T04:33:12.478Z,54.81
2022-10-05T04:34:57.048Z,54.00
2022-10-05T04:36:07.796Z,54.39
2022-10-05T04:37:26.980Z,54.38
2022-10-05T04:38:48.313Z,54.51
2022-10-05T04:40:30.938Z,53.96
2022-10-05T04:42:35.890Z,53.72
2022-10-05T04:43:54.605Z,53.84
2022-10-05T04:45:37.030Z,54.67
2022-10-05T04:47:06.825Z,53.93
2022-10-05T04:48:46.506Z,54.31
2022-10-05T04:50:24.111Z,54.73
2022-10-05T04:51:55.926Z,54.69
2022-10-05T04:53:19.419Z,54.10
2022-10-05T04:55:08.664Z,53.81
2022-10-05T04:56:27.761Z,53.79
2022-10-05T04:57:47.045Z,53.98
2022-10-05T04:59:16.599Z,54.85
2022-10-05T05:00:28.255Z,54.31
2022-10-05T05:02:04.550Z,54.48
2022-10-05T05:03:34.606Z,54.24
2022-10-05T05:05:13.328Z,54.37
2022-10-05T05:06:33.262Z,54.83
2022-10-05T05:07:49.349Z,54.29
2022-10-05T05:09:27.202Z,55.04
2022-10-05T05:11:04.423Z,55.17
2022-10-05T05:12:51.085Z,54.64
2022-10-05T05:13:58.401Z,54.59
2022-10-05T05:15:31.554Z,54.39
2022-10-05T05:16:43.880Z,53.96
2022-10-05T05:18:26.480Z,54.99
2022-10-05T05:20:11.379Z,54.03
2022-10-05T05:21:52.677Z,54.19
2022-10-05T05:23:35.110Z,54.36
2022-10-05T05:25:36.898Z,54.43
2022-10-05T05:27:15.675Z,54.79
2022-10-05T05:28:57.703Z,54.13
2022-10-05T05:30:25.028Z,55.18
2022-10-05T05:31:55.515Z,55.44
2022-10-05T05:33:54.198Z,54.84
2022-10-05T05:35:23.448Z,54.85
2022-10-05T05:36:54.415Z,53.98
2022-10-05T05:38:14.741Z,55.22
2022-10-05T05:40:02.313Z,55.48
2022-10-05T05:41:22.556Z,54.76
2022-10-05T05:42:33.159Z,55.00
2022-10-05T05:44:11.775Z,54.59
2022-10-05T05:45:49.513Z,55.22
2022-10-05T05:47:04.411Z,54.50
2022-10-05T05:48:15.182Z,55.13
2022-10-05T05:49:35.816Z,55.38
2022-10-05T05:51:04.010Z,54.34
2022-10-05T05:52:18.257Z,55.38
2022-10-05T05:53:36.710Z,55.10
2022-10-05T05:54:53.129Z,55.69
2022-10-05T05:56:06.954Z,54.65
2022-10-05T05:57:21.918Z,55.24
2022-10-05T05:58:32.871Z,55.14
2022-10-05T05:59:50.993Z,54.70
2022-10-05T06:01:30.599Z,55.44
2022-10-05T06:03:00.627Z,55.62
2022-10-05T06:04:18.105Z,55.08
2022-10-05T06:05:43.617Z,55.65
2022-10-05T06:06:52.481Z,54.90
2022-10-05T06:07:58.218Z,55.04
2022-10-05T06:09:06.495Z,55.38
2022-10-05T06:10:38.252Z,55.38
2022-10-05T06:11:54.188Z,55.19
2022-10-05T06:13:03.909Z,54.49
2022-10-05T06:14:18.443Z,55.35
2022-10-05T06:15:38.502Z,55.54
2022-10-05T06:17:03.661Z,55.17
2022-10-05T06:18:14.036Z,55.79
2022-10-05T06:19:20.366Z,55.36
2022-10-05T06:20:38.169Z,54.86
2022-10-05T06:22:06.770Z,55.03
2022-10-05T06:23:23.844Z,55.26
2022-10-05T06:24:35.936Z,55.79
2022-10-05T06:26:10.831Z,55.42
2022-10-05T06:27:38.563Z,55.19
2022-10-05T06:28:42.224Z,55.39
2022-10-05T06:30:13.460Z,55.97
2022-10-05T06:31:34.074Z,56.03
2022-10-05T06:32:50.796Z,55.49
2022-10-05T06:34:14.669Z,56.29
2022-10-05T06:36:03.161Z,55.58
2022-10-05T06:37:29.587Z,55.81
2022-10-05T06:39:10.973Z,55.00
2022-10-05T06:40:45.367Z,56.34
2022-10-05T06:42:23.769Z,56.06
2022-10-05T06:43:59.636Z,55.71
2022-10-05T06:45:26.571Z,55.21
2022-10-05T06:46:59.169Z,55.99
2022-10-05T06:48:31.426Z,55.77
2022-10-05T06:50:09.709Z,56.46
2022-10-05T06:51:39.174Z,56.51
2022-10-05T06:53:33.261Z,55.76
2022-10-05T06:55:02.551Z,56.36
2022-10-05T06:56:59.753Z,56.24
2022-10-05T06:58:30.507Z,56.38
2022-10-05T07:00:02.755Z,55.58
2022-10-05T07:01:18.199Z,56.67
2022-10-05T07:02:39.490Z,56.03
2022-10-05T07:04:19.400Z,55.58
2022-10-05T07:06:03.766Z,56.50
2022-10-05T07:07:21.621Z,55.60
2022-10-05T07:09:20.130Z,55.92
2022-10-05T07:10:38.104Z,56.54
2022-10-05T07:12:07.860Z,56.42
2022-10-05T07:14:00.555Z,55.57
2022-10-05T07:15:20.848Z,56.31
2022-10-05T07:16:52.485Z,55.79
2022-10-05T07:18:25.929Z,56.53
2022-10-05T07:20:10.733Z,56.05
2022-10-05T07:21:27.224Z,56.15
2022-10-05T07:22:54.759Z,56.82
2022-10-05T07:24:09.895Z,56.40
2022-10-05T07:25:50.235Z,57.17
2022-10-05T07:27:20.992Z,56.44
2022-10-05T07:28:39.488Z,56.46
2022-10-05T07:30:12.314Z,56.37
2022-10-05T07:31:33.025Z,56.67
2022-10-05T07:32:39.814Z,57.27
2022-10-05T07:34:04.878Z,57.30
2022-10-05T07:35:43.054Z,56.63
2022-10-05T07:37:08.391Z,57.36
2022-10-05T07:38:38.546Z,56.74
2022-10-05T07:40:01.050Z,56.96
2022-10-05T07:41:44.023Z,56.67
2022-10-05T07:42:59.897Z,56.52
2022-10-05T07:44:36.940Z,56.77
2022-10-05T07:46:05.624Z,56.24
2022-10-05T07:47:18.680Z,57.03
2022-10-05T07:48:35.385Z,56.75
2022-10-05T07:49:58.698Z,56.74
2022-10-05T07:51:15.736Z,56.85
2022-10-05T07:52:34.625Z,56.68
2022-10-05T07:53:51.679Z,56.84
2022-10-05T07:55:07.636Z,56.54
2022-10-05T07:56:32.308Z,56.64
2022-10-05T07:57:44.713Z,56.48
2022-10-05T07:58:54.916Z,56.76
2022-10-05T08:00:04.867Z,56.53
2022-10-05T08:01:26.753Z,56.33
2022-10-05T08:02:49.368Z,56.65
2022-10-05T08:03:56.854Z,56.35
2022-10-05T08:05:16.256Z,56.51
2022-10-05T08:06:57.808Z,56.27
2022-10-05T08:08:18.124Z,56.33
2022-10-05T08:09:50.487Z,56.49
2022-10-05T08:11:13.420Z,56.46
2022-10-05T08:12:49.768Z,56.34
2022-10-05T08:13:57.038Z,56.02
2022-10-05T08:15:16.354Z,56.13
2022-10-05T08:16:19.643Z,56.30
2022-10-05T08:17:44.847Z,56.20
2022-10-05T08:19:11.001Z,56.18
2022-10-05T08:20:35.325Z,56.32
2022-10-05T08:22:03.779Z,56.34
2022-10-05T08:23:38.878Z,56.11
2022-10-05T08:24:56.866Z,55.92
2022-10-05T08:26:51.742Z,55.90
2022-10-05T08:28:24.169Z,55.90
2022-10-05T08:29:48.460Z,56.13
2022-10-05T08:31:08.404Z,55.73
2022-10-05T08:32:36.766Z,55.71
2022-10-05T08:34:12.087Z,55.48
2022-10-05T08:35:49.513Z,55.39
2022-10-05T08:37:27.553Z,54.94
2022-10-05T08:38:34.120Z,55.11
2022-10-05T08:39:45.154Z,55.47
2022-10-05T08:41:11.401Z,55.03
2022-10-05T08:42:30.843Z,54.89
2022-10-05T08:44:33.264Z,55.13
2022-10-05T08:46:25.848Z,54.74
2022-10-05T08:47:55.330Z,54.86
2022-10-05T08:49:14.882Z,54.84
2022-10-05T08:50:50.038Z,55.00
2022-10-05T08:52:37.335Z,54.59
2022-10-05T08:54:07.690Z,55.06
2022-10-05T08:55:15.290Z,55.24
2022-10-05T08:57:05.898Z,54.51
2022-10-05T08:58:45.223Z,54.99
2022-10-05T09:00:23.718Z,54.52
2022-10-05T09:01:51.974Z,54.52
2022-10-05T09:03:34.351Z,54.27
2022-10-05T09:04:42.315Z,54.65
2022-10-05T09:06:15.990Z,54.63
2022-10-05T09:07:24.297Z,53.97
2022-10-05T09:09:04.978Z,54.19
2022-10-05T09:10:22.333Z,54.20
2022-10-05T09:11:37.127Z,54.26
2022-10-05T09:12:57.284Z,53.76
2022-10-05T09:14:24.878Z,53.73
2022-10-05T09:16:18.001Z,53.64
2022-10-05T09:18:15.757Z,54.06
2022-10-05T09:20:01.636Z,54.11
2022-10-05T09:21:42.174Z,53.85
2022-10-05T09:23:35.940Z,54.10
2022-10-05T09:25:08.202Z,53.65
2022-10-05T09:26:31.851Z,53.22
2022-10-05T09:27:43.499Z,53.62
2022-10-05T09:28:48.051Z,53.51
2022-10-05T09:30:20.621Z,53.48
2022-10-05T09:31:43.905Z,53.39
2022-10-05T09:33:10.608Z,53.52
2022-10-05T09:34:31.750Z,53.15
2022-10-05T09:36:24.911Z,52.58
2022-10-05T09:38:08.258Z,52.73
2022-10-05T09:39:19.132Z,52.37
2022-10-05T09:40:55.032Z,51.87
2022-10-05T09:43:03.698Z,50.74
2022-10-05T09:44:33.893Z,50.26
2022-10-05T09:46:04.860Z,49.32
2022-10-05T09:47:41.744Z,48.69
2022-10-05T09:48:58.145Z,48.23
2022-10-05T09:50:48.105Z,47.55
2022-10-05T09:52:21.506Z,46.97
2022-10-05T09:54:13.934Z,46.43
2022-10-05T09:56:15.996Z,45.54
2022-10-05T09:57:53.143Z,44.98
2022-10-05T09:59:39.676Z,44.12
2022-10-05T10:01:03.597Z,43.50
2022-10-05T10:02:27.498Z,42.69
2022-10-05T10:04:06.958Z,41.96
2022-10-05T10:05:33.704Z,41.42
2022-10-05T10:07:13.222Z,41.03
2022-10-05T10:09:21.199Z,40.63
2022-10-05T10:11:09.034Z,40.00
2022-10-05T10:12:38.132Z,39.52
2022-10-05T10:14:20.904Z,39.11
2022-10-05T10:15:59.630Z,38.31
2022-10-05T10:17:22.346Z,37.92
2022-10-05T10:18:24.000Z,36.95
2022-10-05T10:19:56.296Z,36.56
2022-10-05T10:21:13.533Z,36.59
2022-10-05T10:22:43.329Z,36.47
2022-10-05T10:24:00.511Z,36.35
2022-10-05T10:25:11.273Z,35.39
2022-10-05T10:27:02.774Z,35.74
2022-10-05T10:28:19.912Z,35.41
2022-10-05T10:29:42.874Z,35.38
2022-10-05T10:31:09.090Z,34.84
2022-10-05T10:32:43.594Z,34.67
2022-10-05T10:34:07.819Z,34.46
2022-10-05T10:35:31.727Z,34.12
2022-10-05T10:37:18.465Z,33.87
2022-10-05T10:38:41.311Z,33.57
2022-10-05T10:40:23.323Z,33.74
2022-10-05T10:41:56.653Z,33.47
2022-10-05T10:43:32.360Z,33.39
2022-10-05T10:44:51.510Z,33.12
2022-10-05T10:46:17.800Z,33.22
2022-10-05T10:47:31.493Z,33.02
2022-10-05T10:49:00.069Z,32.86
2022-10-05T10:50:10.527Z,32.79
2022-10-05T10:51:36.583Z,32.49
2022-10-05T10:53:12.327Z,32.54
2022-10-05T10:54:27.357Z,32.22
2022-10-05T10:55:57.026Z,32.18
2022-10-05T10:57:17.682Z,31.95
2022-10-05T10:58:58.860Z,31.80
2022-10-05T11:00:26.845Z,32.40
2022-10-05T11:02:15.212Z,32.36
2022-10-05T11:04:12.758Z,32.24
2022-10-05T11:05:38.959Z,32.49
2022-10-05T11:06:53.817Z,32.82
2022-10-05T11:08:20.074Z,32.76
2022-10-05T11:09:39.612Z,33.25
2022-10-05T11:10:53.752Z,32.94
2022-10-05T11:12:17.757Z,33.31
2022-10-05T11:13:55.588Z,32.88
2022-10-05T11:15:07.682Z,33.60
2022-10-05T11:16:33.777Z,32.86
2022-10-05T11:18:16.632Z,33.07
2022-10-05T11:20:05.303Z,33.67
2022-10-05T11:21:33.824Z,34.12
2022-10-05T11:22:44.457Z,33.70
2022-10-05T11:24:28.071Z,34.01
2022-10-05T11:25:41.369Z,33.96
2022-10-05T11:27:03.177Z,34.00
2022-10-05T11:28:52.837Z,34.49
2022-10-05T11:30:41.159Z,34.53
2022-10-05T11:31:55.084Z,34.45
2022-10-05T11:33:14.800Z,34.60
2022-10-05T11:34:31.383Z,34.53
2022-10-05T11:36:03.554Z,34.23
2022-10-05T11:37:43.868Z,34.50
2022-10-05T11:39:25.866Z,34.55
2022-10-05T11:40:44.609Z,34.81
2022-10-05T11:42:10.234Z,34.54
2022-10-05T11:43:42.928Z,34.56
2022-10-05T11:45:21.895Z,35.06
2022-10-05T11:47:02.808Z,34.81
2022-10-05T11:48:22.753Z,35.01
2022-10-05T11:49:46.308Z,35.02
2022-10-05T11:51:09.089Z,35.12
2022-10-05T11:52:28.736Z,35.23
2022-10-05T11:53:49.028Z,35.30
2022-10-05T11:55:40.895Z,35.43
2022-10-05T11:56:54.664Z,35.45
2022-10-05T11:58:12.760Z,35.55
2022-10-05T11:59:52.825Z,35.73
2022-10-05T12:01:37.204Z,35.83
2022-10-05T12:03:03.783Z,35.93
2022-10-05T12:04:24.451Z,36.10
2022-10-05T12:06:06.020Z,36.22
2022-10-05T12:07:16.635Z,36.08
2022-10-05T12:08:33.482Z,36.22
2022-10-05T12:10:16.911Z,35.84
2022-10-05T12:11:42.707Z,36.29
2022-10-05T12:13:02.532Z,36.32
2022-10-05T12:14:30.213Z,36.50
2022-10-05T12:15:44.653Z,36.62
2022-10-05T12:17:01.634Z,36.62
2022-10-05T12:18:16.316Z,36.50
2022-10-05T12:19:44.033Z,36.71
2022-10-05T12:20:56.176Z,36.76
2022-10-05T12:22:09.814Z,36.90
2022-10-05T12:23:21.134Z,37.20
2022-10-05T12:24:28.623Z,37.29
2022-10-05T12:26:00.932Z,37.04
2022-10-05T12:27:25.214Z,37.24
2022-10-05T12:28:42.973Z,37.29
2022-10-05T12:30:00.439Z,37.28
2022-10-05T12:31:24.595Z,37.34
2022-10-05T12:33:20.796Z,37.36
2022-10-05T12:34:48.538Z,37.77
2022-10-05T12:36:00.198Z,37.75
2022-10-05T12:37:46.603Z,37.97
2022-10-05T12:39:43.602Z,38.05
2022-10-05T12:40:56.735Z,38.03
2022-10-05T12:42:10.232Z,38.26
2022-10-05T12:43:46.801Z,38.34
2022-10-05T12:45:05.839Z,38.35
2022-10-05T12:46:57.436Z,38.72
2022-10-05T12:48:07.786Z,38.54
2022-10-05T12:49:15.209Z,38.64
2022-10-05T12:50:28.179Z,38.70
2022-10-05T12:52:00.091Z,38.51
2022-10-05T12:53:23.350Z,38.31
2022-10-05T12:54:36.915Z,38.26
2022-10-05T12:56:21.459Z,38.32
2022-10-05T12:57:44.201Z,38.33
2022-10-05T12:58:57.785Z,38.27
2022-10-05T13:00:22.990Z,38.43
2022-10-05T13:01:48.337Z,38.37
2022-10-05T13:03:09.798Z,38.31
2022-10-05T13:04:52.237Z,38.48
2022-10-05T13:06:29.503Z,38.41
2022-10-05T13:08:17.987Z,38.58
2022-10-05T13:09:53.384Z,38.55
2022-10-05T13:11:14.861Z,38.69
2022-10-05T13:12:29.784Z,38.66
2022-10-05T13:14:07.336Z,38.85
2022-10-05T13:15:31.431Z,38.94
2022-10-05T13:17:21.330Z,39.05
2022-10-05T13:18:50.956Z,38.98
2022-10-05T13:20:21.498Z,39.09
2022-10-05T13:21:45.780Z,39.25
2022-10-05T13:23:00.524Z,39.15
2022-10-05T13:24:24.600Z,39.24
2022-10-05T13:25:34.668Z,39.21
2022-10-05T13:26:46.170Z,39.32
2022-10-05T13:28:26.195Z,39.22
2022-10-05T13:29:45.490Z,39.21
2022-10-05T13:31:08.000Z,39.07
2022-10-05T13:32:25.950Z,39.30
2022-10-05T13:34:00.361Z,39.25
2022-10-05T13:35:25.816Z,39.28
2022-10-05T13:36:35.408Z,39.26
2022-10-05T13:37:59.787Z,39.40
2022-10-05T13:39:26.716Z,39.23
2022-10-05T13:41:11.431Z,39.28
2022-10-05T13:42:26.780Z,39.54
2022-10-05T13:44:03.798Z,39.45
2022-10-05T13:45:29.746Z,39.56
2022-10-05T13:46:46.474Z,39.59
2022-10-05T13:48:30.479Z,39.55
2022-10-05T13:49:53.656Z,39.78
2022-10-05T13:51:23.517Z,39.47
2022-10-05T13:52:56.532Z,39.73
2022-10-05T13:54:28.722Z,39.41
2022-10-05T13:55:59.317Z,39.58
2022-10-05T13:57:27.579Z,39.56
2022-10-05T13:58:42.692Z,39.64
2022-10-05T13:59:57.685Z,39.72
2022-10-05T14:01:06.950Z,39.87
2022-10-05T14:02:22.825Z,40.22
2022-10-05T14:04:17.103Z,40.00
2022-10-05T14:05:31.025Z,39.99
2022-10-05T14:06:38.702Z,39.95
2022-10-05T14:08:18.568Z,39.93
2022-10-05T14:09:20.201Z,39.79
2022-10-05T14:10:45.525Z,39.90
2022-10-05T14:12:09.194Z,39.94
2022-10-05T14:13:47.076Z,40.01
2022-10-05T14:14:58.426Z,40.34
2022-10-05T14:16:26.200Z,40.15
2022-10-05T14:17:39.877Z,40.22
2022-10-05T14:19:18.587Z,40.16
2022-10-05T14:20:27.275Z,40.52
2022-10-05T14:21:47.232Z,40.34
2022-10-05T14:23:17.328Z,40.52
2022-10-05T14:24:46.972Z,40.61
2022-10-05T14:25:54.182Z,40.54
2022-10-05T14:26:58.304Z,40.69
2022-10-05T14:28:11.931Z,40.81
2022-10-05T14:29:23.985Z,40.68
2022-10-05T14:30:29.092Z,41.24
2022-10-05T14:31:36.292Z,40.83
2022-10-05T14:32:56.096Z,40.96
2022-10-05T14:34:24.933Z,41.17
2022-10-05T14:35:44.503Z,41.11
2022-10-05T14:36:46.251Z,41.30
2022-10-05T14:38:00.668Z,41.22
2022-10-05T14:39:05.019Z,41.43
2022-10-05T14:40:35.703Z,41.20
2022-10-05T14:41:48.716Z,41.41
2022-10-05T14:42:51.311Z,41.25
2022-10-05T14:44:13.201Z,41.42
2022-10-05T14:45:19.757Z,41.23
2022-10-05T14:46:29.856Z,41.32
2022-10-05T14:47:32.105Z,41.48
2022-10-05T14:48:45.722Z,41.72
2022-10-05T14:50:10.510Z,41.68
2022-10-05T14:51:36.251Z,41.47
2022-10-05T14:52:38.976Z,41.56
2022-10-05T14:53:57.084Z,41.57
2022-10-05T14:55:07.502Z,41.81
2022-10-05T14:56:32.138Z,41.71
2022-10-05T14:57:48.080Z,41.47
2022-10-05T14:59:23.088Z,41.69
2022-10-05T15:00:25.953Z,41.88
2022-10-05T15:01:31.759Z,42.52
2022-10-05T15:02:54.357Z,41.85
2022-10-05T15:04:23.733Z,41.99
2022-10-05T15:05:31.222Z,42.09
2022-10-05T15:06:55.220Z,42.25
2022-10-05T15:08:15.717Z,42.22
2022-10-05T15:09:23.349Z,42.24
2022-10-05T15:10:58.927Z,42.33
2022-10-05T15:12:03.920Z,42.20
2022-10-05T15:13:15.035Z,42.59
2022-10-05T15:14:30.032Z,42.68
2022-10-05T15:15:51.917Z,42.63
2022-10-05T15:17:03.136Z,43.09
2022-10-05T15:18:15.047Z,42.92
2022-10-05T15:19:54.085Z,43.24
2022-10-05T15:21:23.902Z,43.17
2022-10-05T15:22:49.527Z,43.12
2022-10-05T15:23:57.354Z,43.23
2022-10-05T15:25:43.038Z,43.22
2022-10-05T15:27:02.025Z,43.26
2022-10-05T15:28:17.377Z,43.33
2022-10-05T15:29:27.115Z,43.58
2022-10-05T15:30:34.624Z,43.65
2022-10-05T15:31:50.411Z,43.66
2022-10-05T15:33:15.365Z,43.74
2022-10-05T15:34:33.892Z,43.57
2022-10-05T15:36:00.505Z,43.60
2022-10-05T15:37:12.488Z,43.46
2022-10-05T15:38:32.723Z,43.78
2022-10-05T15:39:47.277Z,43.94
2022-10-05T15:41:07.088Z,44.08
2022-10-05T15:42:19.473Z,43.83
2022-10-05T15:43:25.488Z,44.27
2022-10-05T15:45:10.683Z,44.06
2022-10-05T15:46:17.396Z,44.04
2022-10-05T15:47:45.807Z,44.51
2022-10-05T15:49:18.470Z,44.26
2022-10-05T15:50:37.237Z,44.35
2022-10-05T15:51:57.348Z,44.54
2022-10-05T15:53:10.487Z,44.56
2022-10-05T15:54:42.093Z,44.47
2022-10-05T15:56:15.704Z,44.32
2022-10-05T15:57:58.102Z,44.54
2022-10-05T15:59:25.405Z,44.73
2022-10-05T16:00:30.147Z,44.67
2022-10-05T16:01:31.845Z,44.66
2022-10-05T16:03:05.468Z,44.92
2022-10-05T16:04:23.282Z,45.02
2022-10-05T16:05:56.802Z,45.00
2022-10-05T16:07:20.719Z,45.21
2022-10-05T16:08:58.963Z,45.02
2022-10-05T16:10:26.458Z,45.13
2022-10-05T16:11:57.506Z,45.06
2022-10-05T16:14:03.371Z,45.10
2022-10-05T16:15:34.292Z,45.04
2022-10-05T16:16:59.499Z,44.98
2022-10-05T16:18:14.605Z,45.24
2022-10-05T16:19:36.933Z,45.56
2022-10-05T16:20:59.925Z,45.64
2022-10-05T16:22:14.760Z,45.71
2022-10-05T16:23:25.249Z,45.59
2022-10-05T16:25:07.626Z,45.64
2022-10-05T16:26:26.476Z,45.80
2022-10-05T16:28:18.542Z,45.57
2022-10-05T16:29:57.349Z,45.96
2022-10-05T16:31:05.954Z,45.80
2022-10-05T16:32:37.389Z,46.13
2022-10-05T16:34:25.075Z,46.12
2022-10-05T16:35:46.678Z,45.85
2022-10-05T16:37:29.239Z,46.47
2022-10-05T16:38:49.125Z,46.19
2022-10-05T16:40:01.986Z,46.26
2022-10-05T16:41:28.305Z,46.14
2022-10-05T16:43:01.087Z,46.64
2022-10-05T16:44:16.136Z,46.19
2022-10-05T16:46:09.802Z,46.40
2022-10-05T16:47:48.648Z,46.52
2022-10-05T16:49:13.158Z,46.79
2022-10-05T16:50:46.157Z,47.12
2022-10-05T16:51:57.909Z,47.31
2022-10-05T16:53:10.979Z,47.01
2022-10-05T16:54:47.995Z,47.40
2022-10-05T16:56:01.081Z,47.35
2022-10-05T16:57:28.370Z,47.68
2022-10-05T16:59:04.164Z,47.83
2022-10-05T17:00:23.495Z,47.78
2022-10-05T17:01:58.621Z,47.99
2022-10-05T17:03:35.018Z,47.83
2022-10-05T17:05:18.341Z,47.64
2022-10-05T17:07:08.912Z,47.62
2022-10-05T17:08:40.533Z,47.79
2022-10-05T17:10:26.572Z,47.76
2022-10-05T17:11:52.891Z,47.85
2022-10-05T17:13:37.308Z,47.93
2022-10-05T17:15:24.391Z,47.76
2022-10-05T17:16:56.278Z,48.04
2022-10-05T17:18:48.905Z,47.88
2022-10-05T17:20:06.958Z,48.04
2022-10-05T17:22:03.068Z,47.96
2022-10-05T17:23:39.761Z,48.03
2022-10-05T17:24:58.579Z,48.04
2022-10-05T17:26:54.721Z,48.29
2022-10-05T17:28:22.063Z,48.35
2022-10-05T17:30:15.061Z,48.24
2022-10-05T17:31:23.454Z,48.39
2022-10-05T17:32:36.277Z,48.33
2022-10-05T17:33:59.813Z,48.20
2022-10-05T17:35:01.503Z,48.68
2022-10-05T17:36:04.622Z,48.76
2022-10-05T17:38:01.032Z,48.57
2022-10-05T17:39:46.645Z,48.26
2022-10-05T17:41:00.392Z,48.23
2022-10-05T17:42:40.403Z,48.25
2022-10-05T17:44:19.040Z,48.30
2022-10-05T17:45:20.687Z,48.18
2022-10-05T17:46:45.910Z,48.03
2022-10-05T17:47:58.016Z,48.05
2022-10-05T17:49:01.214Z,48.23
2022-10-05T17:50:29.892Z,47.99
2022-10-05T17:51:50.248Z,48.00
2022-10-05T17:53:54.875Z,47.68
2022-10-05T17:55:25.585Z,47.68
2022-10-05T17:56:29.581Z,47.72
2022-10-05T17:57:33.853Z,47.75
2022-10-05T17:58:35.486Z,47.77
2022-10-05T17:59:46.166Z,47.49
2022-10-05T18:00:57.034Z,47.56
2022-10-05T18:02:39.074Z,47.58
2022-10-05T18:03:48.877Z,47.56
2022-10-05T18:05:17.628Z,47.28
2022-10-05T18:06:48.035Z,47.50
2022-10-05T18:08:12.746Z,47.27
2022-10-05T18:09:16.859Z,47.58
2022-10-05T18:10:28.815Z,47.51
2022-10-05T18:11:40.074Z,47.41
2022-10-05T18:12:50.041Z,47.55
2022-10-05T18:14:20.052Z,47.43